createdAt,value
2022-10-01T00:01:24.404Z,99562.39
2022-10-01T00:03:54.203Z,99556.86
2022-10-01T00:06:24.223Z,99546.54
2022-10-01T00:08:52.809Z,99545.13
2022-10-01T00:11:23.957Z,99549.21
2022-10-01T00:13:53.569Z,99546.95
2022-10-01T00:16:25.955Z,99543.05
2022-10-01T00:18:55.350Z,99543.21
2022-10-01T00:21:25.743Z,99549.23
2022-10-01T00:23:55.499Z,99548.33
2022-10-01T00:26:27.762Z,99550.98
2022-10-01T00:28:58.715Z,99546.25
2022-10-01T00:31:28.308Z,99537.62
2022-10-01T00:33:59.826Z,99540.38
2022-10-01T00:36:28.696Z,99543.00
2022-10-01T00:38:59.814Z,99539.99
2022-10-01T00:41:30.736Z,99539.92
2022-10-01T00:44:01.592Z,99542.27
2022-10-01T00:46:38.965Z,99539.86
2022-10-01T00:49:11.228Z,99539.71
2022-10-01T00:51:44.941Z,99538.70
2022-10-01T00:54:16.952Z,99537.52
2022-10-01T00:56:46.446Z,99535.62
2022-10-01T00:59:16.007Z,99536.23
2022-10-01T01:01:44.782Z,99535.56
2022-10-01T01:04:16.134Z,99536.02
2022-10-01T01:06:47.017Z,99529.93
2022-10-01T01:09:16.366Z,99530.79
2022-10-01T01:11:52.953Z,99534.55
2022-10-01T01:14:26.889Z,99527.64
2022-10-01T01:17:00.169Z,99527.80
2022-10-01T01:19:43.362Z,99524.54
2022-10-01T01:22:14.206Z,99519.48
2022-10-01T01:24:49.951Z,99515.76
2022-10-01T01:27:34.175Z,99515.68
2022-10-01T01:30:07.782Z,99512.88
2022-10-01T01:32:45.625Z,99516.36
2022-10-01T01:35:19.534Z,99516.48
2022-10-01T01:37:53.666Z,99517.90
2022-10-01T01:40:23.433Z,99515.98
2022-10-01T01:42:55.471Z,99519.30
2022-10-01T01:45:25.450Z,99521.81
2022-10-01T01:47:56.937Z,99525.05
2022-10-01T01:50:28.353Z,99521.98
2022-10-01T01:52:59.075Z,99522.75
2022-10-01T01:55:29.339Z,99526.77
2022-10-01T01:57:58.339Z,99527.04
2022-10-01T02:00:27.791Z,99532.13
2022-10-01T02:02:57.468Z,99537.08
2022-10-01T02:05:29.416Z,99535.48
2022-10-01T02:08:23.441Z,99532.31
2022-10-01T02:11:04.207Z,99527.86
2022-10-01T02:13:47.159Z,99531.05
2022-10-01T02:16:24.762Z,99530.48
2022-10-01T02:19:01.089Z,99527.12
2022-10-01T02:21:37.017Z,99526.21
2022-10-01T02:24:13.145Z,99530.84
2022-10-01T02:26:43.427Z,99536.01
2022-10-01T02:29:16.009Z,99537.65
2022-10-01T02:31:46.908Z,99539.32
2022-10-01T02:34:20.273Z,99539.09
2022-10-01T02:36:50.871Z,99539.98
2022-10-01T02:39:22.353Z,99539.17
2022-10-01T02:41:53.063Z,99538.17
2022-10-01T02:44:27.450Z,99537.86
2022-10-01T02:47:02.792Z,99537.47
2022-10-01T02:49:32.890Z,99531.70
2022-10-01T02:52:10.575Z,99532.14
2022-10-01T02:58:20.046Z,99525.99
2022-10-01T03:00:48.615Z,99517.94
2022-10-01T03:03:17.136Z,99512.29
2022-10-01T03:05:45.683Z,99505.73
2022-10-01T03:08:14.157Z,99503.15
2022-10-01T03:10:46.583Z,99497.33
2022-10-01T03:13:16.480Z,99495.19
2022-10-01T03:15:47.362Z,99488.53
2022-10-01T03:18:15.996Z,99484.57
2022-10-01T03:20:47.314Z,99492.64
2022-10-01T03:23:16.035Z,99489.31
2022-10-01T03:25:44.719Z,99484.45
2022-10-01T03:28:13.321Z,99478.27
2022-10-01T03:30:41.856Z,99478.14
2022-10-01T03:33:10.363Z,99471.95
2022-10-01T03:35:38.861Z,99476.20
2022-10-01T03:38:07.752Z,99477.41
2022-10-01T03:40:38.391Z,99476.38
2022-10-01T03:43:06.927Z,99473.31
2022-10-01T03:45:35.424Z,99471.52
2022-10-01T03:48:04.023Z,99471.83
2022-10-01T03:50:32.609Z,99474.55
2022-10-01T03:53:01.071Z,99470.86
2022-10-01T03:55:29.699Z,99472.36
2022-10-01T03:57:58.268Z,99468.65
2022-10-01T04:00:26.797Z,99477.15
2022-10-01T04:02:55.327Z,99479.73
2022-10-01T04:05:25.012Z,99478.73
2022-10-01T04:07:53.491Z,99477.37
2022-10-01T04:10:21.976Z,99475.54
2022-10-01T04:12:51.177Z,99476.94
2022-10-01T04:15:19.941Z,99475.63
2022-10-01T04:17:48.538Z,99474.80
2022-10-01T04:20:17.653Z,99476.56
2022-10-01T04:22:46.564Z,99477.48
2022-10-01T04:25:15.354Z,99474.19
2022-10-01T04:27:56.078Z,99471.74
2022-10-01T04:30:25.220Z,99471.94
2022-10-01T04:32:54.098Z,99475.50
2022-10-01T04:35:23.235Z,99475.05
2022-10-01T04:37:58.607Z,99476.26
2022-10-01T04:40:27.835Z,99481.41
2022-10-01T04:42:56.722Z,99479.10
2022-10-01T04:45:25.294Z,99478.94
2022-10-01T04:47:55.108Z,99480.84
2022-10-01T04:50:25.614Z,99474.83
2022-10-01T04:52:54.693Z,99472.36
2022-10-01T04:55:24.219Z,99473.13
2022-10-01T04:57:52.810Z,99472.78
2022-10-01T05:00:23.851Z,99472.05
2022-10-01T05:02:53.081Z,99470.36
2022-10-01T05:05:23.404Z,99470.30
2022-10-01T05:07:51.976Z,99466.96
2022-10-01T05:10:22.241Z,99466.31
2022-10-01T05:12:51.489Z,99463.60
2022-10-01T05:15:20.157Z,99462.41
2022-10-01T05:17:49.200Z,99456.73
2022-10-01T05:20:20.087Z,99452.38
2022-10-01T05:22:49.046Z,99452.73
2022-10-01T05:25:18.687Z,99459.06
2022-10-01T05:27:47.292Z,99457.46
2022-10-01T05:30:23.396Z,99455.45
2022-10-01T05:32:55.936Z,99452.08
2022-10-01T05:35:24.741Z,99449.15
2022-10-01T05:38:00.824Z,99444.59
2022-10-01T05:40:29.844Z,99447.39
2022-10-01T05:42:59.464Z,99445.65
2022-10-01T05:45:31.363Z,99439.75
2022-10-01T05:48:01.529Z,99439.58
2022-10-01T05:50:32.015Z,99444.02
2022-10-01T05:53:01.159Z,99448.98
2022-10-01T05:55:34.010Z,99450.73
2022-10-01T05:58:04.503Z,99453.89
2022-10-01T06:00:35.346Z,99453.77
2022-10-01T06:03:14.337Z,99458.55
2022-10-01T06:05:51.370Z,99457.17
2022-10-01T06:08:23.686Z,99459.27
2022-10-01T06:10:58.291Z,99450.88
2022-10-01T06:13:26.779Z,99443.63
2022-10-01T06:16:00.581Z,99441.27
2022-10-01T06:18:29.304Z,99450.14
2022-10-01T06:20:59.862Z,99449.33
2022-10-01T06:23:29.995Z,99450.08
2022-10-01T06:26:05.873Z,99446.52
2022-10-01T06:28:43.324Z,99450.69
2022-10-01T06:31:11.770Z,99450.64
2022-10-01T06:33:40.283Z,99450.02
2022-10-01T06:36:08.868Z,99444.83
2022-10-01T06:38:37.321Z,99439.21
2022-10-01T06:41:06.672Z,99436.55
2022-10-01T06:43:35.122Z,99427.41
2022-10-01T06:46:04.861Z,99423.77
2022-10-01T06:48:35.799Z,99427.70
2022-10-01T06:51:05.135Z,99428.91
2022-10-01T06:53:33.946Z,99426.80
2022-10-01T06:56:06.235Z,99424.21
2022-10-01T06:58:35.137Z,99423.68
2022-10-01T07:01:03.846Z,99422.26
2022-10-01T07:03:32.590Z,99424.96
2022-10-01T07:06:07.358Z,99426.96
2022-10-01T07:08:35.961Z,99424.18
2022-10-01T07:11:04.689Z,99424.30
2022-10-01T07:13:33.376Z,99422.75
2022-10-01T07:16:03.924Z,99428.15
2022-10-01T07:18:32.414Z,99426.77
2022-10-01T07:21:01.135Z,99424.54
2022-10-01T07:23:29.669Z,99421.85
2022-10-01T07:25:59.251Z,99421.24
2022-10-01T07:28:28.102Z,99419.67
2022-10-01T07:31:01.890Z,99414.92
2022-10-01T07:33:30.533Z,99418.85
2022-10-01T07:36:01.903Z,99420.55
2022-10-01T07:38:30.891Z,99417.45
2022-10-01T07:41:01.833Z,99416.02
2022-10-01T07:43:30.673Z,99412.24
2022-10-01T07:45:59.567Z,99410.75
2022-10-01T07:48:28.274Z,99408.33
2022-10-01T07:50:57.136Z,99410.67
2022-10-01T07:53:25.693Z,99404.17
2022-10-01T07:55:54.174Z,99410.88
2022-10-01T07:58:23.390Z,99409.73
2022-10-01T08:00:55.233Z,99414.45
2022-10-01T08:03:23.066Z,99415.45
2022-10-01T08:05:53.021Z,99414.00
2022-10-01T08:08:21.316Z,99416.37
2022-10-01T08:10:50.289Z,99421.09
2022-10-01T08:13:19.776Z,99420.11
2022-10-01T08:15:52.682Z,99414.94
2022-10-01T08:18:21.417Z,99408.84
2022-10-01T08:20:50.144Z,99407.06
2022-10-01T08:23:18.781Z,99405.17
2022-10-01T08:25:47.506Z,99400.17
2022-10-01T08:28:18.938Z,99390.59
2022-10-01T08:30:47.542Z,99390.31
2022-10-01T08:33:16.107Z,99390.75
2022-10-01T08:35:45.005Z,99389.38
2022-10-01T08:38:13.788Z,99390.41
2022-10-01T08:40:47.557Z,99391.11
2022-10-01T08:43:35.791Z,99387.11
2022-10-01T08:46:06.422Z,99384.11
2022-10-01T08:48:45.120Z,99382.63
2022-10-01T08:51:23.571Z,99379.66
2022-10-01T08:53:55.715Z,99376.70
2022-10-01T08:56:24.576Z,99373.02
2022-10-01T08:58:58.431Z,99374.39
2022-10-01T09:01:29.107Z,99371.55
2022-10-01T09:03:58.679Z,99369.37
2022-10-01T09:06:28.796Z,99367.80
2022-10-01T09:09:12.319Z,99367.97
2022-10-01T09:11:59.376Z,99366.41
2022-10-01T09:14:53.378Z,99360.48
2022-10-01T09:17:50.389Z,99356.34
2022-10-01T09:20:32.862Z,99348.68
2022-10-01T09:23:19.734Z,99341.95
2022-10-01T09:25:53.709Z,99339.36
2022-10-01T09:28:32.659Z,99337.42
2022-10-01T09:31:16.155Z,99333.85
2022-10-01T09:33:54.852Z,99328.20
2022-10-01T09:36:36.665Z,99320.09
2022-10-01T09:39:18.292Z,99316.77
2022-10-01T09:41:51.415Z,99316.45
2022-10-01T09:44:28.941Z,99311.95
2022-10-01T09:46:59.873Z,99308.27
2022-10-01T09:49:39.131Z,99303.48
2022-10-01T09:52:17.798Z,99300.39
2022-10-01T09:54:51.407Z,99299.63
2022-10-01T09:57:26.400Z,99294.82
2022-10-01T10:00:07.195Z,99292.12
2022-10-01T10:02:39.331Z,99291.61
2022-10-01T10:05:12.925Z,99286.13
2022-10-01T10:07:46.108Z,99282.14
2022-10-01T10:10:25.521Z,99278.02
2022-10-01T10:13:01.101Z,99274.32
2022-10-01T10:15:31.925Z,99269.90
2022-10-01T10:18:06.920Z,99274.41
2022-10-01T10:20:39.983Z,99275.73
2022-10-01T10:23:13.825Z,99272.80
2022-10-01T10:25:42.756Z,99272.64
2022-10-01T10:28:20.569Z,99272.52
2022-10-01T10:30:50.653Z,99263.88
2022-10-01T10:33:21.335Z,99250.23
2022-10-01T10:35:59.760Z,99247.70
2022-10-01T10:38:31.091Z,99236.56
2022-10-01T10:41:00.354Z,99231.44
2022-10-01T10:43:33.472Z,99224.96
2022-10-01T10:46:03.006Z,99214.11
2022-10-01T10:48:36.921Z,99211.08
2022-10-01T10:51:06.391Z,99211.73
2022-10-01T10:53:43.652Z,99215.44
2022-10-01T10:56:22.202Z,99210.10
2022-10-01T10:58:51.638Z,99209.26
2022-10-01T11:01:27.195Z,99204.98
2022-10-01T11:03:59.165Z,99200.45
2022-10-01T11:06:26.977Z,99194.82
2022-10-01T11:09:04.067Z,99189.55
2022-10-01T11:11:46.771Z,99190.63
2022-10-01T11:14:27.900Z,99181.63
2022-10-01T11:17:14.077Z,99168.27
2022-10-01T11:20:01.181Z,99163.37
2022-10-01T11:22:45.148Z,99162.48
2022-10-01T11:25:28.635Z,99156.60
2022-10-01T11:28:02.870Z,99154.69
2022-10-01T11:30:41.987Z,99147.88
2022-10-01T11:33:20.166Z,99141.55
2022-10-01T11:35:57.545Z,99138.73
2022-10-01T11:38:40.802Z,99138.20
2022-10-01T11:41:27.849Z,99138.23
2022-10-01T11:44:04.534Z,99132.08
2022-10-01T11:46:42.585Z,99127.27
2022-10-01T11:49:33.340Z,99120.87
2022-10-01T11:52:10.231Z,99115.54
2022-10-01T11:54:56.070Z,99112.58
2022-10-01T11:57:44.977Z,99114.02
2022-10-01T12:00:15.289Z,99111.31
2022-10-01T12:02:51.553Z,99105.63
2022-10-01T12:05:23.416Z,99103.88
2022-10-01T12:07:54.773Z,99099.88
2022-10-01T12:10:38.679Z,99095.94
2022-10-01T12:13:19.153Z,99097.66
2022-10-01T12:15:53.374Z,99097.20
2022-10-01T12:18:31.240Z,99100.38
2022-10-01T12:21:03.533Z,99095.20
2022-10-01T12:23:39.706Z,99089.24
2022-10-01T12:26:17.746Z,99087.33
2022-10-01T12:28:59.931Z,99082.25
2022-10-01T12:31:35.966Z,99077.23
2022-10-01T12:34:15.957Z,99080.85
2022-10-01T12:36:55.153Z,99081.10
2022-10-01T12:39:31.821Z,99086.02
2022-10-01T12:42:14.753Z,99082.86
2022-10-01T12:44:56.582Z,99080.17
2022-10-01T12:47:38.685Z,99081.67
2022-10-01T12:50:13.844Z,99075.09
2022-10-01T12:52:53.699Z,99066.92
2022-10-01T12:55:33.581Z,99064.08
2022-10-01T12:58:12.405Z,99063.48
2022-10-01T13:00:50.044Z,99056.90
2022-10-01T13:03:36.843Z,99054.38
2022-10-01T13:06:33.207Z,99048.02
2022-10-01T13:09:13.551Z,99048.56
2022-10-01T13:12:00.622Z,99051.62
2022-10-01T13:14:32.527Z,99046.33
2022-10-01T13:17:02.384Z,99047.16
2022-10-01T13:19:40.821Z,99041.84
2022-10-01T13:22:18.988Z,99040.36
2022-10-01T13:24:55.289Z,99035.19
2022-10-01T13:27:32.421Z,99031.34
2022-10-01T13:30:05.425Z,99024.77
2022-10-01T13:32:36.667Z,99023.47
2022-10-01T13:35:23.726Z,99019.90
2022-10-01T13:37:52.907Z,99017.44
2022-10-01T13:40:29.952Z,99020.06
2022-10-01T13:43:01.835Z,99012.80
2022-10-01T13:45:39.333Z,99007.38
2022-10-01T13:48:15.955Z,99011.64
2022-10-01T13:50:57.052Z,99009.38
2022-10-01T13:53:29.015Z,99003.29
2022-10-01T13:55:58.273Z,99000.39
2022-10-01T13:58:36.714Z,98998.48
2022-10-01T14:01:25.620Z,98995.91
2022-10-01T14:04:03.257Z,98995.06
2022-10-01T14:06:42.018Z,98992.34
2022-10-01T14:09:16.312Z,98993.33
2022-10-01T14:12:06.088Z,98994.48
2022-10-01T14:14:55.611Z,98992.40
2022-10-01T14:17:27.672Z,98990.39
2022-10-01T14:19:58.675Z,98990.66
2022-10-01T14:22:38.764Z,98986.86
2022-10-01T14:25:31.094Z,98984.58
2022-10-01T14:28:12.145Z,98980.84
2022-10-01T14:30:48.503Z,98985.23
2022-10-01T14:33:35.122Z,98979.79
2022-10-01T14:36:10.076Z,98975.52
2022-10-01T14:38:38.914Z,98981.16
2022-10-01T14:41:18.018Z,98979.64
2022-10-01T14:43:47.802Z,98978.65
2022-10-01T14:46:18.080Z,98975.20
2022-10-01T14:48:58.012Z,98974.73
2022-10-01T14:51:28.451Z,98962.20
2022-10-01T14:53:59.868Z,98955.44
2022-10-01T14:56:29.086Z,98956.02
2022-10-01T14:59:02.229Z,98951.17
2022-10-01T15:01:30.798Z,98952.39
2022-10-01T15:03:59.736Z,98949.30
2022-10-01T15:06:29.227Z,98949.57
2022-10-01T15:09:13.672Z,98945.77
2022-10-01T15:11:44.932Z,98948.69
2022-10-01T15:14:17.531Z,98949.59
2022-10-01T15:16:48.550Z,98952.53
2022-10-01T15:19:20.385Z,98944.78
2022-10-01T15:21:50.959Z,98944.44
2022-10-01T15:24:28.761Z,98943.31
2022-10-01T15:26:58.325Z,98939.77
2022-10-01T15:29:27.380Z,98937.97
2022-10-01T15:31:58.066Z,98939.96
2022-10-01T15:34:27.719Z,98938.13
2022-10-01T15:36:56.547Z,98936.36
2022-10-01T15:39:35.384Z,98939.39
2022-10-01T15:42:08.436Z,98937.98
2022-10-01T15:44:49.754Z,98935.27
2022-10-01T15:47:32.751Z,98932.96
2022-10-01T15:50:19.366Z,98927.17
2022-10-01T15:53:06.253Z,98921.71
2022-10-01T15:55:39.650Z,98917.04
2022-10-01T15:58:17.031Z,98917.05
2022-10-01T16:00:58.890Z,98914.48
2022-10-01T16:03:34.748Z,98916.17
2022-10-01T16:06:22.348Z,98912.20
2022-10-01T16:09:01.406Z,98917.10
2022-10-01T16:11:51.249Z,98920.14
2022-10-01T16:14:29.603Z,98919.21
2022-10-01T16:17:27.394Z,98956.98
2022-10-01T16:19:58.547Z,98978.45
2022-10-01T16:22:31.045Z,98982.27
2022-10-01T16:25:01.574Z,98981.27
2022-10-01T16:27:35.082Z,98984.70
2022-10-01T16:30:11.791Z,98984.98
2022-10-01T16:32:40.323Z,98985.04
2022-10-01T16:35:20.258Z,98986.50
2022-10-01T16:37:50.713Z,98990.58
2022-10-01T16:40:20.592Z,98989.23
2022-10-01T16:42:50.287Z,98991.40
2022-10-01T16:45:21.865Z,98987.28
2022-10-01T16:47:51.226Z,98989.44
2022-10-01T16:50:21.427Z,98985.76
2022-10-01T16:52:52.744Z,98987.73
2022-10-01T16:55:23.413Z,98987.10
2022-10-01T16:57:53.880Z,98990.05
2022-10-01T17:00:24.965Z,98993.83
2022-10-01T17:02:55.653Z,98991.95
2022-10-01T17:05:26.115Z,98988.44
2022-10-01T17:07:57.073Z,98988.52
2022-10-01T17:10:26.695Z,98987.23
2022-10-01T17:12:55.990Z,98984.04
2022-10-01T17:15:26.476Z,98986.80
2022-10-01T17:17:56.094Z,98993.10
2022-10-01T17:20:27.793Z,98989.75
2022-10-01T17:22:57.310Z,98989.36
2022-10-01T17:25:30.408Z,98987.93
2022-10-01T17:28:00.276Z,98990.76
2022-10-01T17:30:29.073Z,98985.45
2022-10-01T17:32:59.244Z,98976.02
2022-10-01T17:35:29.235Z,98976.04
2022-10-01T17:37:58.401Z,98975.73
2022-10-01T17:40:27.423Z,98974.36
2022-10-01T17:42:56.370Z,98968.55
2022-10-01T17:45:25.071Z,98966.04
2022-10-01T17:47:53.964Z,98969.50
2022-10-01T17:50:22.935Z,98971.85
2022-10-01T17:52:51.560Z,98973.55
2022-10-01T17:55:23.111Z,98986.08
2022-10-01T17:57:52.592Z,98994.11
2022-10-01T18:00:22.190Z,98992.91
2022-10-01T18:02:50.725Z,98996.48
2022-10-01T18:05:21.341Z,98999.83
2022-10-01T18:07:50.473Z,99006.30
2022-10-01T18:10:19.304Z,99005.92
2022-10-01T18:12:48.336Z,99009.33
2022-10-01T18:15:19.807Z,99010.98
2022-10-01T18:17:51.747Z,99007.50
2022-10-01T18:20:21.699Z,99015.25
2022-10-01T18:22:51.092Z,99016.34
2022-10-01T18:25:24.227Z,99015.95
2022-10-01T18:27:57.286Z,99014.60
2022-10-01T18:30:29.041Z,99018.52
2022-10-01T18:33:02.806Z,99014.58
2022-10-01T18:35:39.944Z,99011.83
2022-10-01T18:38:20.122Z,99008.87
2022-10-01T18:40:56.826Z,99011.77
2022-10-01T18:43:36.230Z,99017.24
2022-10-01T18:46:19.567Z,99026.47
2022-10-01T18:49:14.292Z,99022.88
2022-10-01T18:52:06.867Z,99021.80
2022-10-01T18:55:00.146Z,99022.52
2022-10-01T18:57:51.096Z,99027.02
2022-10-01T19:00:28.099Z,99024.88
2022-10-01T19:03:25.128Z,99026.56
2022-10-01T19:06:15.326Z,99026.24
2022-10-01T19:09:01.696Z,99025.33
2022-10-01T19:11:49.237Z,99025.77
2022-10-01T19:14:37.799Z,99023.50
2022-10-01T19:17:22.413Z,99025.58
2022-10-01T19:20:05.776Z,99022.05
2022-10-01T19:22:51.668Z,99029.88
2022-10-01T19:25:26.847Z,99033.78
2022-10-01T19:28:10.009Z,99036.73
2022-10-01T19:30:51.819Z,99039.05
2022-10-01T19:33:22.348Z,99042.33
2022-10-01T19:35:56.599Z,99043.29
2022-10-01T19:38:29.126Z,99043.48
2022-10-01T19:41:01.240Z,99042.64
2022-10-01T19:43:37.611Z,99045.62
2022-10-01T19:46:12.336Z,99047.31
2022-10-01T19:48:47.557Z,99054.13
2022-10-01T19:51:20.909Z,99055.27
2022-10-01T19:53:55.825Z,99055.70
2022-10-01T19:56:27.856Z,99059.71
2022-10-01T19:58:57.033Z,99056.96
2022-10-01T20:01:34.034Z,99057.52
2022-10-01T20:04:11.011Z,99060.92
2022-10-01T20:06:43.793Z,99064.33
2022-10-01T20:09:23.066Z,99069.92
2022-10-01T20:11:59.275Z,99071.81
2022-10-01T20:15:03.188Z,99076.62
2022-10-01T20:17:37.623Z,99077.05
2022-10-01T20:20:16.619Z,99081.73
2022-10-01T20:23:00.107Z,99082.23
2022-10-01T20:25:39.194Z,99087.92
2022-10-01T20:28:15.726Z,99092.92
2022-10-01T20:30:56.462Z,99092.98
2022-10-01T20:33:34.317Z,99086.63
2022-10-01T20:36:11.253Z,99080.31
2022-10-01T20:38:45.512Z,99081.14
2022-10-01T20:41:17.420Z,99086.58
2022-10-01T20:43:52.455Z,99083.15
2022-10-01T20:46:26.159Z,99082.88
2022-10-01T20:49:01.554Z,99082.77
2022-10-01T20:51:47.561Z,99080.23
2022-10-01T20:54:21.899Z,99080.61
2022-10-01T20:57:06.771Z,99081.02
2022-10-01T20:59:41.057Z,99084.96
2022-10-01T21:02:28.524Z,99087.77
2022-10-01T21:05:06.520Z,99087.09
2022-10-01T21:07:41.959Z,99090.08
2022-10-01T21:10:22.186Z,99089.91
2022-10-01T21:13:05.034Z,99091.11
2022-10-01T21:15:47.519Z,99092.09
2022-10-01T21:18:25.456Z,99093.58
2022-10-01T21:21:07.795Z,99098.94
2022-10-01T21:23:51.800Z,99100.09
2022-10-01T21:26:34.893Z,99103.05
2022-10-01T21:29:27.580Z,99105.08
2022-10-01T21:32:11.978Z,99106.72
2022-10-01T21:34:54.729Z,99108.95
2022-10-01T21:37:29.414Z,99110.11
2022-10-01T21:40:17.150Z,99106.51
2022-10-01T21:43:01.040Z,99109.05
2022-10-01T21:45:38.539Z,99113.31
2022-10-01T21:48:25.551Z,99115.58
2022-10-01T21:50:59.698Z,99115.13
2022-10-01T21:53:44.246Z,99119.67
2022-10-01T21:56:23.618Z,99121.67
2022-10-01T21:59:05.262Z,99123.54
2022-10-01T22:01:55.196Z,99123.57
2022-10-01T22:04:31.827Z,99127.75
2022-10-01T22:07:12.469Z,99125.69
2022-10-01T22:09:49.563Z,99129.27
2022-10-01T22:12:19.362Z,99132.96
2022-10-01T22:14:51.369Z,99133.36
2022-10-01T22:17:24.832Z,99132.40
2022-10-01T22:19:57.203Z,99135.27
2022-10-01T22:22:30.782Z,99136.58
2022-10-01T22:25:00.914Z,99137.88
2022-10-01T22:27:36.447Z,99138.05
2022-10-01T22:30:12.085Z,99137.70
2022-10-01T22:32:45.427Z,99143.89
2022-10-01T22:35:19.755Z,99141.21
2022-10-01T22:37:53.156Z,99146.69
2022-10-01T22:40:28.098Z,99149.36
2022-10-01T22:43:03.027Z,99152.91
2022-10-01T22:45:52.200Z,99156.25
2022-10-01T22:48:36.992Z,99156.80
2022-10-01T22:51:20.605Z,99155.59
2022-10-01T22:54:08.853Z,99155.55
2022-10-01T22:56:48.122Z,99158.25
2022-10-01T22:59:31.905Z,99162.03
2022-10-01T23:02:07.174Z,99160.56
2022-10-01T23:04:53.586Z,99160.23
2022-10-01T23:07:31.442Z,99161.80
2022-10-01T23:10:08.946Z,99161.30
2022-10-01T23:12:46.152Z,99166.67
2022-10-01T23:15:27.618Z,99169.62
2022-10-01T23:18:03.381Z,99169.63
2022-10-01T23:20:35.571Z,99173.64
2022-10-01T23:23:10.453Z,99180.08
2022-10-01T23:25:49.380Z,99182.13
2022-10-01T23:28:32.782Z,99184.40
2022-10-01T23:31:10.392Z,99188.15
2022-10-01T23:33:58.825Z,99191.02
2022-10-01T23:36:44.257Z,99192.48
2022-10-01T23:39:45.108Z,99190.69
2022-10-01T23:42:28.559Z,99196.89
2022-10-01T23:45:08.690Z,99197.58
2022-10-01T23:47:42.976Z,99204.18
2022-10-01T23:50:22.064Z,99210.17
2022-10-01T23:52:59.501Z,99219.34
2022-10-01T23:55:56.698Z,99220.80
2022-10-01T23:58:28.431Z,99225.27
